sensor_id;sensor_type;location;lat;lon;timestamp;temperature;humidity
27559;DHT22;15002;52.028;5.670;2023-05-10T00:00:23;16.50;99.90
27559;DHT22;15002;52.028;5.670;2023-05-10T00:02:49;16.50;99.90
27559;DHT22;15002;52.028;5.670;2023-05-10T00:05:15;16.50;99.90
27559;DHT22;15002;52.028;5.670;2023-05-10T00:07:40;16.60;99.90
27559;DHT22;15002;52.028;5.670;2023-05-10T00:10:10;16.50;99.90
27559;DHT22;15002;52.028;5.670;2023-05-10T00:12:35;16.50;99.90
27559;DHT22;15002;52.028;5.670;2023-05-10T00:15:02;16.50;99.90
27559;DHT22;15002;52.028;5.670;2023-05-10T00:17:28;16.40;99.90
27559;DHT22;15002;52.028;5.670;2023-05-10T00:19:53;16.50;99.90
27559;DHT22;15002;52.028;5.670;2023-05-10T00:22:19;16.60;99.90
27559;DHT22;15002;52.028;5.670;2023-05-10T00:24:45;16.50;99.90
27559;DHT22;15002;52.028;5.670;2023-05-10T00:27:11;16.50;99.90
27559;DHT22;15002;52.028;5.670;2023-05-10T00:29:36;16.50;99.90
27559;DHT22;15002;52.028;5.670;2023-05-10T00:32:02;16.50;99.90
27559;DHT22;15002;52.028;5.670;2023-05-10T00:34:28;16.50;99.90
27559;DHT22;15002;52.028;5.670;2023-05-10T00:36:53;16.60;99.90
27559;DHT22;15002;52.028;5.670;2023-05-10T00:39:19;16.50;99.90
27559;DHT22;15002;52.028;5.670;2023-05-10T00:41:45;16.50;99.90
27559;DHT22;15002;52.028;5.670;2023-05-10T00:44:11;16.50;99.90
27559;DHT22;15002;52.028;5.670;2023-05-10T00:46:37;16.50;99.90
27559;DHT22;15002;52.028;5.670;2023-05-10T00:49:02;16.50;99.90
27559;DHT22;15002;52.028;5.670;2023-05-10T00:51:28;16.60;99.90
27559;DHT22;15002;52.028;5.670;2023-05-10T00:53:54;16.50;99.90
27559;DHT22;15002;52.028;5.670;2023-05-10T00:56:21;16.50;99.90
27559;DHT22;15002;52.028;5.670;2023-05-10T00:58:48;16.50;99.90
27559;DHT22;15002;52.028;5.670;2023-05-10T01:01:14;16.50;99.90
27559;DHT22;15002;52.028;5.670;2023-05-10T01:03:40;16.40;99.90
27559;DHT22;15002;52.028;5.670;2023-05-10T01:06:06;16.50;99.90
27559;DHT22;15002;52.028;5.670;2023-05-10T01:08:32;16.60;99.90
27559;DHT22;15002;52.028;5.670;2023-05-10T01:10:59;16.50;99.90
27559;DHT22;15002;52.028;5.670;2023-05-10T01:13:36;16.60;99.90
27559;DHT22;15002;52.028;5.670;2023-05-10T01:16:03;16.60;99.90
27559;DHT22;15002;52.028;5.670;2023-05-10T01:18:30;16.50;99.90
27559;DHT22;15002;52.028;5.670;2023-05-10T01:21:14;16.60;99.90
27559;DHT22;15002;52.028;5.670;2023-05-10T01:27:02;16.50;99.90
27559;DHT22;15002;52.028;5.670;2023-05-10T01:33:01;16.60;99.90
27559;DHT22;15002;52.028;5.670;2023-05-10T01:35:43;16.60;99.90
27559;DHT22;15002;52.028;5.670;2023-05-10T01:38:18;16.60;99.90
27559;DHT22;15002;52.028;5.670;2023-05-10T01:46:27;16.60;99.90
27559;DHT22;15002;52.028;5.670;2023-05-10T01:48:55;16.70;99.90
27559;DHT22;15002;52.028;5.670;2023-05-10T01:51:29;16.60;99.90
27559;DHT22;15002;52.028;5.670;2023-05-10T01:54:02;16.50;99.90
27559;DHT22;15002;52.028;5.670;2023-05-10T01:56:31;16.60;99.90
27559;DHT22;15002;52.028;5.670;2023-05-10T01:58:58;16.60;99.90
27559;DHT22;15002;52.028;5.670;2023-05-10T02:01:26;16.60;99.90
27559;DHT22;15002;52.028;5.670;2023-05-10T02:03:53;16.50;99.90
27559;DHT22;15002;52.028;5.670;2023-05-10T02:06:21;16.50;99.90
27559;DHT22;15002;52.028;5.670;2023-05-10T02:08:49;16.60;99.90
27559;DHT22;15002;52.028;5.670;2023-05-10T02:11:17;16.70;99.90
27559;DHT22;15002;52.028;5.670;2023-05-10T02:13:45;16.70;99.90
27559;DHT22;15002;52.028;5.670;2023-05-10T02:16:13;16.80;99.90
27559;DHT22;15002;52.028;5.670;2023-05-10T02:18:40;16.60;99.90
27559;DHT22;15002;52.028;5.670;2023-05-10T02:21:06;16.60;99.90
27559;DHT22;15002;52.028;5.670;2023-05-10T02:23:34;16.60;99.90
27559;DHT22;15002;52.028;5.670;2023-05-10T02:26:00;16.80;99.90
27559;DHT22;15002;52.028;5.670;2023-05-10T02:28:28;16.70;99.90
27559;DHT22;15002;52.028;5.670;2023-05-10T02:30:55;16.70;99.90
27559;DHT22;15002;52.028;5.670;2023-05-10T02:33:22;16.60;99.90
27559;DHT22;15002;52.028;5.670;2023-05-10T02:35:48;16.60;99.90
27559;DHT22;15002;52.028;5.670;2023-05-10T02:38:14;16.50;99.90
27559;DHT22;15002;52.028;5.670;2023-05-10T02:40:41;16.50;99.90
27559;DHT22;15002;52.028;5.670;2023-05-10T02:43:12;16.50;99.90
27559;DHT22;15002;52.028;5.670;2023-05-10T02:45:40;16.50;99.90
27559;DHT22;15002;52.028;5.670;2023-05-10T02:48:06;16.40;99.90
27559;DHT22;15002;52.028;5.670;2023-05-10T02:50:33;16.40;99.90
27559;DHT22;15002;52.028;5.670;2023-05-10T02:53:01;16.40;99.90
27559;DHT22;15002;52.028;5.670;2023-05-10T02:55:33;16.50;99.90
27559;DHT22;15002;52.028;5.670;2023-05-10T02:58:01;16.50;99.90
27559;DHT22;15002;52.028;5.670;2023-05-10T03:00:27;16.50;99.90
27559;DHT22;15002;52.028;5.670;2023-05-10T03:02:53;16.40;99.90
27559;DHT22;15002;52.028;5.670;2023-05-10T03:05:19;16.30;99.90
27559;DHT22;15002;52.028;5.670;2023-05-10T03:07:45;16.30;99.90
27559;DHT22;15002;52.028;5.670;2023-05-10T03:10:11;16.30;99.90
27559;DHT22;15002;52.028;5.670;2023-05-10T03:15:57;16.30;99.90
27559;DHT22;15002;52.028;5.670;2023-05-10T03:18:32;16.30;99.90
27559;DHT22;15002;52.028;5.670;2023-05-10T03:21:03;16.20;99.90
27559;DHT22;15002;52.028;5.670;2023-05-10T03:23:50;16.20;99.90
27559;DHT22;15002;52.028;5.670;2023-05-10T03:26:26;16.30;99.90
27559;DHT22;15002;52.028;5.670;2023-05-10T03:28:52;16.30;99.90
27559;DHT22;15002;52.028;5.670;2023-05-10T03:31:18;16.30;99.90
27559;DHT22;15002;52.028;5.670;2023-05-10T03:33:48;16.20;99.90
27559;DHT22;15002;52.028;5.670;2023-05-10T03:36:14;16.30;99.90
27559;DHT22;15002;52.028;5.670;2023-05-10T03:38:39;16.40;99.90
27559;DHT22;15002;52.028;5.670;2023-05-10T03:41:05;16.30;99.90
27559;DHT22;15002;52.028;5.670;2023-05-10T03:43:31;16.30;99.90
27559;DHT22;15002;52.028;5.670;2023-05-10T03:45:56;16.40;99.90
27559;DHT22;15002;52.028;5.670;2023-05-10T03:48:22;16.40;99.90
27559;DHT22;15002;52.028;5.670;2023-05-10T03:50:48;16.40;99.90
27559;DHT22;15002;52.028;5.670;2023-05-10T03:53:15;16.60;99.90
27559;DHT22;15002;52.028;5.670;2023-05-10T03:55:40;16.60;99.90
27559;DHT22;15002;52.028;5.670;2023-05-10T03:58:06;16.60;99.90
27559;DHT22;15002;52.028;5.670;2023-05-10T04:00:32;16.40;99.90
27559;DHT22;15002;52.028;5.670;2023-05-10T04:02:58;16.30;99.90
27559;DHT22;15002;52.028;5.670;2023-05-10T04:05:24;16.40;99.90
27559;DHT22;15002;52.028;5.670;2023-05-10T04:07:49;16.30;99.90
27559;DHT22;15002;52.028;5.670;2023-05-10T04:10:16;16.20;99.90
27559;DHT22;15002;52.028;5.670;2023-05-10T04:12:42;16.10;99.90
27559;DHT22;15002;52.028;5.670;2023-05-10T04:15:08;16.00;99.90
27559;DHT22;15002;52.028;5.670;2023-05-10T04:17:34;16.20;99.90
27559;DHT22;15002;52.028;5.670;2023-05-10T04:19:59;16.10;99.90
27559;DHT22;15002;52.028;5.670;2023-05-10T04:22:25;16.10;99.90
27559;DHT22;15002;52.028;5.670;2023-05-10T04:24:51;16.20;99.90
27559;DHT22;15002;52.028;5.670;2023-05-10T04:27:16;16.30;99.90
27559;DHT22;15002;52.028;5.670;2023-05-10T04:29:42;16.20;99.90
27559;DHT22;15002;52.028;5.670;2023-05-10T04:32:08;16.30;99.90
27559;DHT22;15002;52.028;5.670;2023-05-10T04:34:36;16.30;99.90
27559;DHT22;15002;52.028;5.670;2023-05-10T04:37:01;16.20;99.90
27559;DHT22;15002;52.028;5.670;2023-05-10T04:39:27;16.20;99.90
27559;DHT22;15002;52.028;5.670;2023-05-10T04:41:52;16.20;99.90
27559;DHT22;15002;52.028;5.670;2023-05-10T04:44:18;16.10;99.90
27559;DHT22;15002;52.028;5.670;2023-05-10T04:46:43;16.00;99.90
27559;DHT22;15002;52.028;5.670;2023-05-10T04:49:09;16.10;99.90
27559;DHT22;15002;52.028;5.670;2023-05-10T04:51:35;16.10;99.90
27559;DHT22;15002;52.028;5.670;2023-05-10T04:54:00;16.00;99.90
27559;DHT22;15002;52.028;5.670;2023-05-10T04:56:26;15.90;99.90
27559;DHT22;15002;52.028;5.670;2023-05-10T04:58:51;15.90;99.90
27559;DHT22;15002;52.028;5.670;2023-05-10T05:01:17;16.00;99.90
27559;DHT22;15002;52.028;5.670;2023-05-10T05:03:43;16.00;99.90
27559;DHT22;15002;52.028;5.670;2023-05-10T05:06:08;16.10;99.90
27559;DHT22;15002;52.028;5.670;2023-05-10T05:08:34;16.00;99.90
27559;DHT22;15002;52.028;5.670;2023-05-10T05:11:00;16.00;99.90
27559;DHT22;15002;52.028;5.670;2023-05-10T05:13:25;16.10;99.90
27559;DHT22;15002;52.028;5.670;2023-05-10T05:15:51;16.20;99.90
27559;DHT22;15002;52.028;5.670;2023-05-10T05:18:16;16.20;99.90
27559;DHT22;15002;52.028;5.670;2023-05-10T05:20:42;16.20;99.90
27559;DHT22;15002;52.028;5.670;2023-05-10T05:23:08;16.40;99.90
27559;DHT22;15002;52.028;5.670;2023-05-10T05:25:34;16.20;99.90
27559;DHT22;15002;52.028;5.670;2023-05-10T05:27:59;16.10;99.90
27559;DHT22;15002;52.028;5.670;2023-05-10T05:30:25;16.30;99.90
27559;DHT22;15002;52.028;5.670;2023-05-10T05:32:50;16.20;99.90
27559;DHT22;15002;52.028;5.670;2023-05-10T05:35:16;16.20;99.90
27559;DHT22;15002;52.028;5.670;2023-05-10T05:37:42;16.20;99.90
27559;DHT22;15002;52.028;5.670;2023-05-10T05:40:08;16.20;99.90
27559;DHT22;15002;52.028;5.670;2023-05-10T05:42:33;16.20;99.90
27559;DHT22;15002;52.028;5.670;2023-05-10T05:44:59;16.30;99.90
27559;DHT22;15002;52.028;5.670;2023-05-10T05:47:25;16.30;99.90
27559;DHT22;15002;52.028;5.670;2023-05-10T05:49:50;16.40;99.90
27559;DHT22;15002;52.028;5.670;2023-05-10T05:52:16;16.40;99.90
27559;DHT22;15002;52.028;5.670;2023-05-10T05:54:42;16.40;99.90
27559;DHT22;15002;52.028;5.670;2023-05-10T05:57:08;16.40;99.90
27559;DHT22;15002;52.028;5.670;2023-05-10T05:59:34;16.30;99.90
27559;DHT22;15002;52.028;5.670;2023-05-10T06:02:00;16.30;99.90
27559;DHT22;15002;52.028;5.670;2023-05-10T06:04:25;16.30;99.90
27559;DHT22;15002;52.028;5.670;2023-05-10T06:06:51;16.50;99.90
27559;DHT22;15002;52.028;5.670;2023-05-10T06:09:17;16.30;99.90
27559;DHT22;15002;52.028;5.670;2023-05-10T06:11:42;16.30;99.90
27559;DHT22;15002;52.028;5.670;2023-05-10T06:14:08;16.30;99.90
27559;DHT22;15002;52.028;5.670;2023-05-10T06:16:35;16.40;99.90
27559;DHT22;15002;52.028;5.670;2023-05-10T06:19:00;16.50;99.90
27559;DHT22;15002;52.028;5.670;2023-05-10T06:21:26;16.70;99.90
27559;DHT22;15002;52.028;5.670;2023-05-10T06:23:52;16.60;99.90
27559;DHT22;15002;52.028;5.670;2023-05-10T06:26:17;16.40;99.90
27559;DHT22;15002;52.028;5.670;2023-05-10T06:28:43;16.50;99.90
27559;DHT22;15002;52.028;5.670;2023-05-10T06:31:08;16.50;99.90
27559;DHT22;15002;52.028;5.670;2023-05-10T06:33:36;16.70;99.90
27559;DHT22;15002;52.028;5.670;2023-05-10T06:36:02;16.70;99.90
27559;DHT22;15002;52.028;5.670;2023-05-10T06:38:28;16.70;99.90
27559;DHT22;15002;52.028;5.670;2023-05-10T06:40:53;16.60;99.90
27559;DHT22;15002;52.028;5.670;2023-05-10T06:43:19;16.60;99.90
27559;DHT22;15002;52.028;5.670;2023-05-10T06:45:45;16.80;99.90
27559;DHT22;15002;52.028;5.670;2023-05-10T06:48:10;16.70;99.90
27559;DHT22;15002;52.028;5.670;2023-05-10T06:50:36;16.90;99.90
27559;DHT22;15002;52.028;5.670;2023-05-10T06:53:02;17.00;99.90
27559;DHT22;15002;52.028;5.670;2023-05-10T06:55:28;17.00;99.90
27559;DHT22;15002;52.028;5.670;2023-05-10T06:57:54;16.90;99.90
27559;DHT22;15002;52.028;5.670;2023-05-10T07:00:20;17.00;99.90
27559;DHT22;15002;52.028;5.670;2023-05-10T07:02:46;16.70;99.90
27559;DHT22;15002;52.028;5.670;2023-05-10T07:05:12;16.70;99.90
27559;DHT22;15002;52.028;5.670;2023-05-10T07:07:38;16.90;99.90
27559;DHT22;15002;52.028;5.670;2023-05-10T07:10:05;17.00;99.90
27559;DHT22;15002;52.028;5.670;2023-05-10T07:12:31;17.10;99.90
27559;DHT22;15002;52.028;5.670;2023-05-10T07:14:56;17.10;99.90
27559;DHT22;15002;52.028;5.670;2023-05-10T07:17:22;17.00;99.90
27559;DHT22;15002;52.028;5.670;2023-05-10T07:19:48;17.00;99.90
27559;DHT22;15002;52.028;5.670;2023-05-10T07:22:14;17.00;99.90
27559;DHT22;15002;52.028;5.670;2023-05-10T07:24:40;16.90;99.90
27559;DHT22;15002;52.028;5.670;2023-05-10T07:27:06;17.10;99.90
27559;DHT22;15002;52.028;5.670;2023-05-10T07:29:32;17.20;99.90
27559;DHT22;15002;52.028;5.670;2023-05-10T07:31:58;17.10;99.90
27559;DHT22;15002;52.028;5.670;2023-05-10T07:34:23;17.00;99.90
27559;DHT22;15002;52.028;5.670;2023-05-10T07:36:49;17.00;99.90
27559;DHT22;15002;52.028;5.670;2023-05-10T07:39:15;17.00;99.90
27559;DHT22;15002;52.028;5.670;2023-05-10T07:41:40;17.10;99.90
27559;DHT22;15002;52.028;5.670;2023-05-10T07:44:06;17.10;99.90
27559;DHT22;15002;52.028;5.670;2023-05-10T07:46:32;17.30;99.90
27559;DHT22;15002;52.028;5.670;2023-05-10T07:48:58;17.20;99.90
27559;DHT22;15002;52.028;5.670;2023-05-10T07:51:23;17.10;99.90
27559;DHT22;15002;52.028;5.670;2023-05-10T07:53:49;17.30;99.90
27559;DHT22;15002;52.028;5.670;2023-05-10T07:56:28;17.40;99.90
27559;DHT22;15002;52.028;5.670;2023-05-10T07:58:58;17.40;99.90
27559;DHT22;15002;52.028;5.670;2023-05-10T08:01:25;17.40;99.90
27559;DHT22;15002;52.028;5.670;2023-05-10T08:03:50;17.30;99.90
27559;DHT22;15002;52.028;5.670;2023-05-10T08:06:20;17.40;99.90
27559;DHT22;15002;52.028;5.670;2023-05-10T08:08:47;17.40;99.90
27559;DHT22;15002;52.028;5.670;2023-05-10T08:11:18;17.50;99.90
27559;DHT22;15002;52.028;5.670;2023-05-10T08:13:44;17.20;99.90
27559;DHT22;15002;52.028;5.670;2023-05-10T08:16:10;17.30;99.90
27559;DHT22;15002;52.028;5.670;2023-05-10T08:18:36;17.30;99.90
27559;DHT22;15002;52.028;5.670;2023-05-10T08:21:02;17.20;99.90
27559;DHT22;15002;52.028;5.670;2023-05-10T08:23:28;17.20;99.90
27559;DHT22;15002;52.028;5.670;2023-05-10T08:25:53;17.20;99.90
27559;DHT22;15002;52.028;5.670;2023-05-10T08:28:19;17.20;99.90
27559;DHT22;15002;52.028;5.670;2023-05-10T08:30:44;17.10;99.90
27559;DHT22;15002;52.028;5.670;2023-05-10T08:33:10;17.20;99.90
27559;DHT22;15002;52.028;5.670;2023-05-10T08:35:36;17.20;99.90
27559;DHT22;15002;52.028;5.670;2023-05-10T08:38:01;17.20;99.90
27559;DHT22;15002;52.028;5.670;2023-05-10T08:40:27;17.30;99.90
27559;DHT22;15002;52.028;5.670;2023-05-10T08:43:03;17.60;99.90
27559;DHT22;15002;52.028;5.670;2023-05-10T08:45:32;17.60;99.90
27559;DHT22;15002;52.028;5.670;2023-05-10T08:47:59;17.60;99.90
27559;DHT22;15002;52.028;5.670;2023-05-10T08:50:26;17.60;99.90
27559;DHT22;15002;52.028;5.670;2023-05-10T08:52:53;17.70;99.90
27559;DHT22;15002;52.028;5.670;2023-05-10T08:55:20;17.90;99.90
27559;DHT22;15002;52.028;5.670;2023-05-10T08:57:48;18.10;99.90
27559;DHT22;15002;52.028;5.670;2023-05-10T09:00:14;18.10;99.90
27559;DHT22;15002;52.028;5.670;2023-05-10T09:02:42;18.00;99.90
27559;DHT22;15002;52.028;5.670;2023-05-10T09:05:08;18.00;99.90
27559;DHT22;15002;52.028;5.670;2023-05-10T09:07:35;17.90;99.90
27559;DHT22;15002;52.028;5.670;2023-05-10T09:10:02;17.90;99.90
27559;DHT22;15002;52.028;5.670;2023-05-10T09:12:28;17.90;99.90
27559;DHT22;15002;52.028;5.670;2023-05-10T09:14:54;17.90;99.90
27559;DHT22;15002;52.028;5.670;2023-05-10T09:17:23;17.80;99.90
27559;DHT22;15002;52.028;5.670;2023-05-10T09:19:49;17.80;99.90
27559;DHT22;15002;52.028;5.670;2023-05-10T09:22:14;17.70;99.90
27559;DHT22;15002;52.028;5.670;2023-05-10T09:24:42;18.00;99.90
27559;DHT22;15002;52.028;5.670;2023-05-10T09:27:10;18.00;99.90
27559;DHT22;15002;52.028;5.670;2023-05-10T09:29:42;18.10;99.90
27559;DHT22;15002;52.028;5.670;2023-05-10T09:32:08;18.10;99.90
27559;DHT22;15002;52.028;5.670;2023-05-10T09:34:34;18.00;99.90
27559;DHT22;15002;52.028;5.670;2023-05-10T09:37:05;18.10;99.90
27559;DHT22;15002;52.028;5.670;2023-05-10T09:39:38;18.10;99.90
27559;DHT22;15002;52.028;5.670;2023-05-10T09:42:08;18.10;99.90
27559;DHT22;15002;52.028;5.670;2023-05-10T09:44:35;18.10;99.90
27559;DHT22;15002;52.028;5.670;2023-05-10T09:47:01;18.10;99.90
27559;DHT22;15002;52.028;5.670;2023-05-10T09:49:27;18.30;99.90
27559;DHT22;15002;52.028;5.670;2023-05-10T09:52:03;18.30;99.90
27559;DHT22;15002;52.028;5.670;2023-05-10T09:54:29;18.10;99.90
27559;DHT22;15002;52.028;5.670;2023-05-10T09:56:55;18.00;99.90
27559;DHT22;15002;52.028;5.670;2023-05-10T09:59:21;18.00;99.90
27559;DHT22;15002;52.028;5.670;2023-05-10T10:01:50;18.30;99.90
27559;DHT22;15002;52.028;5.670;2023-05-10T10:04:17;18.20;99.90
27559;DHT22;15002;52.028;5.670;2023-05-10T10:06:43;18.30;99.90
27559;DHT22;15002;52.028;5.670;2023-05-10T10:09:09;18.40;99.90
27559;DHT22;15002;52.028;5.670;2023-05-10T10:11:36;18.60;99.90
27559;DHT22;15002;52.028;5.670;2023-05-10T10:14:02;18.70;99.90
27559;DHT22;15002;52.028;5.670;2023-05-10T10:16:32;18.90;99.90
27559;DHT22;15002;52.028;5.670;2023-05-10T10:18:58;19.00;99.90
27559;DHT22;15002;52.028;5.670;2023-05-10T10:21:24;19.00;99.90
27559;DHT22;15002;52.028;5.670;2023-05-10T10:23:50;19.00;99.90
27559;DHT22;15002;52.028;5.670;2023-05-10T10:26:17;19.10;99.90
27559;DHT22;15002;52.028;5.670;2023-05-10T10:31:41;19.20;99.90
27559;DHT22;15002;52.028;5.670;2023-05-10T10:34:11;19.20;99.90
27559;DHT22;15002;52.028;5.670;2023-05-10T10:36:46;19.20;99.90
27559;DHT22;15002;52.028;5.670;2023-05-10T10:39:12;19.50;99.90
27559;DHT22;15002;52.028;5.670;2023-05-10T10:41:48;19.50;99.90
27559;DHT22;15002;52.028;5.670;2023-05-10T10:47:21;19.60;99.90
27559;DHT22;15002;52.028;5.670;2023-05-10T10:50:03;19.70;99.90
27559;DHT22;15002;52.028;5.670;2023-05-10T10:52:40;19.70;99.90
27559;DHT22;15002;52.028;5.670;2023-05-10T11:00:28;20.00;99.90
27559;DHT22;15002;52.028;5.670;2023-05-10T11:03:03;20.00;99.90
27559;DHT22;15002;52.028;5.670;2023-05-10T11:05:46;20.10;99.90
27559;DHT22;15002;52.028;5.670;2023-05-10T11:08:29;20.10;99.90
27559;DHT22;15002;52.028;5.670;2023-05-10T11:13:29;19.80;99.90
27559;DHT22;15002;52.028;5.670;2023-05-10T11:15:55;20.00;99.90
27559;DHT22;15002;52.028;5.670;2023-05-10T11:18:28;20.10;99.90
27559;DHT22;15002;52.028;5.670;2023-05-10T11:21:00;19.80;99.90
27559;DHT22;15002;52.028;5.670;2023-05-10T11:23:47;20.20;99.90
27559;DHT22;15002;52.028;5.670;2023-05-10T11:26:13;20.20;99.90
27559;DHT22;15002;52.028;5.670;2023-05-10T11:28:43;20.20;99.90
27559;DHT22;15002;52.028;5.670;2023-05-10T11:31:09;20.20;99.90
27559;DHT22;15002;52.028;5.670;2023-05-10T11:33:54;20.20;99.90
27559;DHT22;15002;52.028;5.670;2023-05-10T11:36:22;20.30;99.90
27559;DHT22;15002;52.028;5.670;2023-05-10T11:38:49;20.00;99.90
27559;DHT22;15002;52.028;5.670;2023-05-10T11:41:16;19.80;99.90
27559;DHT22;15002;52.028;5.670;2023-05-10T11:43:43;19.70;99.90
27559;DHT22;15002;52.028;5.670;2023-05-10T11:46:11;19.70;99.90
27559;DHT22;15002;52.028;5.670;2023-05-10T11:48:41;19.80;99.90
27559;DHT22;15002;52.028;5.670;2023-05-10T11:51:08;20.10;99.90
27559;DHT22;15002;52.028;5.670;2023-05-10T11:53:34;19.90;99.90
27559;DHT22;15002;52.028;5.670;2023-05-10T11:56:07;20.10;99.90
27559;DHT22;15002;52.028;5.670;2023-05-10T11:58:33;20.00;99.90
27559;DHT22;15002;52.028;5.670;2023-05-10T12:01:00;20.20;99.90
27559;DHT22;15002;52.028;5.670;2023-05-10T12:03:27;20.00;99.90
27559;DHT22;15002;52.028;5.670;2023-05-10T12:05:54;19.90;99.90
27559;DHT22;15002;52.028;5.670;2023-05-10T12:08:27;20.20;99.90
27559;DHT22;15002;52.028;5.670;2023-05-10T12:11:03;20.50;99.90
27559;DHT22;15002;52.028;5.670;2023-05-10T12:13:29;20.40;99.90
27559;DHT22;15002;52.028;5.670;2023-05-10T12:15:57;20.30;99.90
27559;DHT22;15002;52.028;5.670;2023-05-10T12:18:23;20.30;99.90
27559;DHT22;15002;52.028;5.670;2023-05-10T12:20:52;20.50;99.90
27559;DHT22;15002;52.028;5.670;2023-05-10T12:23:21;20.40;99.90
27559;DHT22;15002;52.028;5.670;2023-05-10T12:25:46;20.20;99.90
27559;DHT22;15002;52.028;5.670;2023-05-10T12:28:12;20.20;99.90
27559;DHT22;15002;52.028;5.670;2023-05-10T12:30:38;20.40;99.90
27559;DHT22;15002;52.028;5.670;2023-05-10T12:33:10;20.50;99.90
27559;DHT22;15002;52.028;5.670;2023-05-10T12:35:47;20.60;99.90
27559;DHT22;15002;52.028;5.670;2023-05-10T12:38:29;20.30;99.90
27559;DHT22;15002;52.028;5.670;2023-05-10T12:41:00;20.50;99.90
27559;DHT22;15002;52.028;5.670;2023-05-10T12:43:26;20.80;99.90
27559;DHT22;15002;52.028;5.670;2023-05-10T12:45:52;21.10;99.90
27559;DHT22;15002;52.028;5.670;2023-05-10T12:48:18;20.80;99.90
27559;DHT22;15002;52.028;5.670;2023-05-10T12:50:43;21.20;99.90
27559;DHT22;15002;52.028;5.670;2023-05-10T12:53:09;21.20;99.90
27559;DHT22;15002;52.028;5.670;2023-05-10T12:55:35;21.30;99.90
27559;DHT22;15002;52.028;5.670;2023-05-10T12:58:00;21.40;99.90
27559;DHT22;15002;52.028;5.670;2023-05-10T13:00:26;21.30;99.90
27559;DHT22;15002;52.028;5.670;2023-05-10T13:02:52;21.10;99.90
27559;DHT22;15002;52.028;5.670;2023-05-10T13:05:18;21.20;99.90
27559;DHT22;15002;52.028;5.670;2023-05-10T13:07:44;21.10;99.90
27559;DHT22;15002;52.028;5.670;2023-05-10T13:10:10;21.20;99.90
27559;DHT22;15002;52.028;5.670;2023-05-10T13:12:35;21.10;99.90
27559;DHT22;15002;52.028;5.670;2023-05-10T13:15:02;20.90;99.90
27559;DHT22;15002;52.028;5.670;2023-05-10T13:17:28;21.00;99.90
27559;DHT22;15002;52.028;5.670;2023-05-10T13:19:54;20.90;99.90
27559;DHT22;15002;52.028;5.670;2023-05-10T13:22:20;20.60;99.90
27559;DHT22;15002;52.028;5.670;2023-05-10T13:24:46;20.50;99.90
27559;DHT22;15002;52.028;5.670;2023-05-10T13:27:11;20.20;99.90
27559;DHT22;15002;52.028;5.670;2023-05-10T13:29:37;20.20;99.90
27559;DHT22;15002;52.028;5.670;2023-05-10T13:32:03;20.10;99.90
27559;DHT22;15002;52.028;5.670;2023-05-10T13:34:28;19.50;99.90
27559;DHT22;15002;52.028;5.670;2023-05-10T13:36:54;19.30;99.90
27559;DHT22;15002;52.028;5.670;2023-05-10T13:39:21;19.10;99.90
27559;DHT22;15002;52.028;5.670;2023-05-10T13:41:47;19.10;99.90
27559;DHT22;15002;52.028;5.670;2023-05-10T13:44:13;18.90;99.90
27559;DHT22;15002;52.028;5.670;2023-05-10T13:46:42;18.70;99.90
27559;DHT22;15002;52.028;5.670;2023-05-10T13:49:09;18.70;99.90
27559;DHT22;15002;52.028;5.670;2023-05-10T13:51:35;18.60;99.90
27559;DHT22;15002;52.028;5.670;2023-05-10T13:54:04;18.40;99.90
27559;DHT22;15002;52.028;5.670;2023-05-10T13:56:30;18.60;99.90
27559;DHT22;15002;52.028;5.670;2023-05-10T13:58:59;18.50;99.90
27559;DHT22;15002;52.028;5.670;2023-05-10T14:01:24;18.50;99.90
27559;DHT22;15002;52.028;5.670;2023-05-10T14:03:50;18.60;99.90
27559;DHT22;15002;52.028;5.670;2023-05-10T14:06:16;18.70;99.90
27559;DHT22;15002;52.028;5.670;2023-05-10T14:08:42;18.80;99.90
27559;DHT22;15002;52.028;5.670;2023-05-10T14:11:07;18.60;99.90
27559;DHT22;15002;52.028;5.670;2023-05-10T14:13:33;18.50;99.90
27559;DHT22;15002;52.028;5.670;2023-05-10T14:15:59;18.60;99.90
27559;DHT22;15002;52.028;5.670;2023-05-10T14:18:27;18.40;99.90
27559;DHT22;15002;52.028;5.670;2023-05-10T14:20:53;18.40;99.90
27559;DHT22;15002;52.028;5.670;2023-05-10T14:23:19;18.40;99.90
27559;DHT22;15002;52.028;5.670;2023-05-10T14:25:52;18.40;99.90
27559;DHT22;15002;52.028;5.670;2023-05-10T14:28:18;18.40;99.90
27559;DHT22;15002;52.028;5.670;2023-05-10T14:30:44;18.30;99.90
27559;DHT22;15002;52.028;5.670;2023-05-10T14:33:09;18.20;99.90
27559;DHT22;15002;52.028;5.670;2023-05-10T14:35:35;18.10;99.90
27559;DHT22;15002;52.028;5.670;2023-05-10T14:38:02;17.90;99.90
27559;DHT22;15002;52.028;5.670;2023-05-10T14:40:29;18.00;99.90
27559;DHT22;15002;52.028;5.670;2023-05-10T14:42:55;18.20;99.90
27559;DHT22;15002;52.028;5.670;2023-05-10T14:45:21;18.10;99.90
27559;DHT22;15002;52.028;5.670;2023-05-10T14:47:48;17.80;99.90
27559;DHT22;15002;52.028;5.670;2023-05-10T14:50:14;17.90;99.90
27559;DHT22;15002;52.028;5.670;2023-05-10T14:52:39;17.90;99.90
27559;DHT22;15002;52.028;5.670;2023-05-10T14:55:05;18.00;99.90
27559;DHT22;15002;52.028;5.670;2023-05-10T14:57:31;18.10;99.90
27559;DHT22;15002;52.028;5.670;2023-05-10T14:59:57;18.10;99.90
27559;DHT22;15002;52.028;5.670;2023-05-10T15:02:23;18.10;99.90
27559;DHT22;15002;52.028;5.670;2023-05-10T15:04:48;18.20;99.90
27559;DHT22;15002;52.028;5.670;2023-05-10T15:07:14;18.30;99.90
27559;DHT22;15002;52.028;5.670;2023-05-10T15:09:41;18.20;99.90
27559;DHT22;15002;52.028;5.670;2023-05-10T15:12:07;18.20;99.90
27559;DHT22;15002;52.028;5.670;2023-05-10T15:14:33;18.00;99.90
27559;DHT22;15002;52.028;5.670;2023-05-10T15:16:59;17.80;99.90
27559;DHT22;15002;52.028;5.670;2023-05-10T15:19:25;18.10;99.90
27559;DHT22;15002;52.028;5.670;2023-05-10T15:21:50;18.20;99.90
27559;DHT22;15002;52.028;5.670;2023-05-10T15:24:16;18.10;99.90
27559;DHT22;15002;52.028;5.670;2023-05-10T15:26:42;18.10;99.90
27559;DHT22;15002;52.028;5.670;2023-05-10T15:29:07;18.00;99.90
27559;DHT22;15002;52.028;5.670;2023-05-10T15:31:33;18.10;99.90
27559;DHT22;15002;52.028;5.670;2023-05-10T15:34:01;18.00;99.90
27559;DHT22;15002;52.028;5.670;2023-05-10T15:36:27;18.00;99.90
27559;DHT22;15002;52.028;5.670;2023-05-10T15:38:54;17.70;99.90
27559;DHT22;15002;52.028;5.670;2023-05-10T15:41:20;17.70;99.90
27559;DHT22;15002;52.028;5.670;2023-05-10T15:43:46;18.00;99.90
27559;DHT22;15002;52.028;5.670;2023-05-10T15:46:11;18.10;99.90
27559;DHT22;15002;52.028;5.670;2023-05-10T15:48:37;18.20;99.90
27559;DHT22;15002;52.028;5.670;2023-05-10T15:51:04;18.30;99.90
27559;DHT22;15002;52.028;5.670;2023-05-10T15:53:30;18.50;99.90
27559;DHT22;15002;52.028;5.670;2023-05-10T15:55:55;18.50;99.90
27559;DHT22;15002;52.028;5.670;2023-05-10T15:58:21;18.40;99.90